sensor_id;sensor_type;location;lat;lon;timestamp;P1;durP1;ratioP1;P2;durP2;ratioP2
9799;SDS011;4939;52.00085300;4.17406100;2023-02-18T00:00:06;57.47;;;11.13;;
9799;SDS011;4939;52.00085300;4.17406100;2023-02-18T00:02:35;49.78;;;11.27;;
9799;SDS011;4939;52.00085300;4.17406100;2023-02-18T00:05:01;52.95;;;10.57;;
9799;SDS011;4939;52.00085300;4.17406100;2023-02-18T00:07:27;51.45;;;11.50;;
9799;SDS011;4939;52.00085300;4.17406100;2023-02-18T00:09:52;57.53;;;11.77;;
9799;SDS011;4939;52.00085300;4.17406100;2023-02-18T00:12:18;60.67;;;12.43;;
9799;SDS011;4939;52.00085300;4.17406100;2023-02-18T00:14:43;69.43;;;12.93;;
9799;SDS011;4939;52.00085300;4.17406100;2023-02-18T00:17:09;64.07;;;12.55;;
9799;SDS011;4939;52.00085300;4.17406100;2023-02-18T00:19:34;74.00;;;12.85;;
9799;SDS011;4939;52.00085300;4.17406100;2023-02-18T00:22:00;62.22;;;12.02;;
9799;SDS011;4939;52.00085300;4.17406100;2023-02-18T00:24:26;72.97;;;13.07;;
9799;SDS011;4939;52.00085300;4.17406100;2023-02-18T00:26:51;51.58;;;11.02;;
9799;SDS011;4939;52.00085300;4.17406100;2023-02-18T00:29:17;60.17;;;11.70;;
9799;SDS011;4939;52.00085300;4.17406100;2023-02-18T00:31:44;64.53;;;12.45;;
9799;SDS011;4939;52.00085300;4.17406100;2023-02-18T00:34:10;54.97;;;12.45;;
9799;SDS011;4939;52.00085300;4.17406100;2023-02-18T00:36:37;63.65;;;12.27;;
9799;SDS011;4939;52.00085300;4.17406100;2023-02-18T00:39:07;58.92;;;11.07;;
9799;SDS011;4939;52.00085300;4.17406100;2023-02-18T00:41:34;52.58;;;11.20;;
9799;SDS011;4939;52.00085300;4.17406100;2023-02-18T00:44:01;52.15;;;10.73;;
9799;SDS011;4939;52.00085300;4.17406100;2023-02-18T00:46:27;51.30;;;10.02;;
9799;SDS011;4939;52.00085300;4.17406100;2023-02-18T00:48:53;54.33;;;10.07;;
9799;SDS011;4939;52.00085300;4.17406100;2023-02-18T00:51:19;55.55;;;10.75;;
9799;SDS011;4939;52.00085300;4.17406100;2023-02-18T00:53:45;51.17;;;10.50;;
9799;SDS011;4939;52.00085300;4.17406100;2023-02-18T00:56:11;45.03;;;9.55;;
9799;SDS011;4939;52.00085300;4.17406100;2023-02-18T00:58:38;42.17;;;10.25;;
9799;SDS011;4939;52.00085300;4.17406100;2023-02-18T01:01:04;42.72;;;9.30;;
9799;SDS011;4939;52.00085300;4.17406100;2023-02-18T01:03:31;35.53;;;9.27;;
9799;SDS011;4939;52.00085300;4.17406100;2023-02-18T01:05:56;36.60;;;9.07;;
9799;SDS011;4939;52.00085300;4.17406100;2023-02-18T01:08:22;34.42;;;8.77;;
9799;SDS011;4939;52.00085300;4.17406100;2023-02-18T01:10:48;38.25;;;9.15;;
9799;SDS011;4939;52.00085300;4.17406100;2023-02-18T01:13:17;45.13;;;10.77;;
9799;SDS011;4939;52.00085300;4.17406100;2023-02-18T01:15:43;40.72;;;9.45;;
9799;SDS011;4939;52.00085300;4.17406100;2023-02-18T01:18:10;38.45;;;8.98;;
9799;SDS011;4939;52.00085300;4.17406100;2023-02-18T01:20:36;46.20;;;10.48;;
9799;SDS011;4939;52.00085300;4.17406100;2023-02-18T01:23:03;44.72;;;10.10;;
9799;SDS011;4939;52.00085300;4.17406100;2023-02-18T01:25:29;51.10;;;10.48;;
9799;SDS011;4939;52.00085300;4.17406100;2023-02-18T01:27:56;42.65;;;10.27;;
9799;SDS011;4939;52.00085300;4.17406100;2023-02-18T01:30:22;42.38;;;9.65;;
9799;SDS011;4939;52.00085300;4.17406100;2023-02-18T01:32:48;41.63;;;10.00;;
9799;SDS011;4939;52.00085300;4.17406100;2023-02-18T01:35:14;43.83;;;10.43;;
9799;SDS011;4939;52.00085300;4.17406100;2023-02-18T01:37:42;44.53;;;10.20;;
9799;SDS011;4939;52.00085300;4.17406100;2023-02-18T01:40:10;46.58;;;10.95;;
9799;SDS011;4939;52.00085300;4.17406100;2023-02-18T01:42:40;41.70;;;10.48;;
9799;SDS011;4939;52.00085300;4.17406100;2023-02-18T01:48:04;48.83;;;12.30;;
9799;SDS011;4939;52.00085300;4.17406100;2023-02-18T01:50:45;53.35;;;11.43;;
9799;SDS011;4939;52.00085300;4.17406100;2023-02-18T01:53:15;44.75;;;11.13;;
9799;SDS011;4939;52.00085300;4.17406100;2023-02-18T01:55:46;44.60;;;10.35;;
9799;SDS011;4939;52.00085300;4.17406100;2023-02-18T01:58:13;57.20;;;11.77;;
9799;SDS011;4939;52.00085300;4.17406100;2023-02-18T02:00:39;46.75;;;10.48;;
9799;SDS011;4939;52.00085300;4.17406100;2023-02-18T02:03:05;49.42;;;10.73;;
9799;SDS011;4939;52.00085300;4.17406100;2023-02-18T02:05:31;53.08;;;11.77;;
9799;SDS011;4939;52.00085300;4.17406100;2023-02-18T02:07:58;38.03;;;11.25;;
9799;SDS011;4939;52.00085300;4.17406100;2023-02-18T02:10:27;49.88;;;11.45;;
9799;SDS011;4939;52.00085300;4.17406100;2023-02-18T02:13:11;47.25;;;11.60;;
9799;SDS011;4939;52.00085300;4.17406100;2023-02-18T02:16:05;55.80;;;10.80;;
9799;SDS011;4939;52.00085300;4.17406100;2023-02-18T02:18:49;43.88;;;10.32;;
9799;SDS011;4939;52.00085300;4.17406100;2023-02-18T02:27:08;42.85;;;11.23;;
9799;SDS011;4939;52.00085300;4.17406100;2023-02-18T02:32:44;44.00;;;10.27;;
9799;SDS011;4939;52.00085300;4.17406100;2023-02-18T02:35:21;40.63;;;9.45;;
9799;SDS011;4939;52.00085300;4.17406100;2023-02-18T02:38:02;37.00;;;9.48;;
9799;SDS011;4939;52.00085300;4.17406100;2023-02-18T02:43:26;42.65;;;9.70;;
9799;SDS011;4939;52.00085300;4.17406100;2023-02-18T02:46:05;31.27;;;8.23;;
9799;SDS011;4939;52.00085300;4.17406100;2023-02-18T02:51:23;38.72;;;8.23;;
9799;SDS011;4939;52.00085300;4.17406100;2023-02-18T02:54:17;39.90;;;7.72;;
9799;SDS011;4939;52.00085300;4.17406100;2023-02-18T02:56:47;51.00;;;9.25;;
9799;SDS011;4939;52.00085300;4.17406100;2023-02-18T02:59:15;40.95;;;9.68;;
9799;SDS011;4939;52.00085300;4.17406100;2023-02-18T03:05:14;36.88;;;9.27;;
9799;SDS011;4939;52.00085300;4.17406100;2023-02-18T03:08:15;41.05;;;8.40;;
9799;SDS011;4939;52.00085300;4.17406100;2023-02-18T03:10:56;42.42;;;8.27;;
9799;SDS011;4939;52.00085300;4.17406100;2023-02-18T03:24:37;42.78;;;10.27;;
9799;SDS011;4939;52.00085300;4.17406100;2023-02-18T03:27:12;42.03;;;9.45;;
9799;SDS011;4939;52.00085300;4.17406100;2023-02-18T03:29:38;35.08;;;8.57;;
9799;SDS011;4939;52.00085300;4.17406100;2023-02-18T03:32:07;33.90;;;8.02;;
9799;SDS011;4939;52.00085300;4.17406100;2023-02-18T03:34:36;40.60;;;9.23;;
9799;SDS011;4939;52.00085300;4.17406100;2023-02-18T03:37:05;37.40;;;8.65;;
9799;SDS011;4939;52.00085300;4.17406100;2023-02-18T03:39:34;40.25;;;8.27;;
9799;SDS011;4939;52.00085300;4.17406100;2023-02-18T03:42:00;44.17;;;9.75;;
9799;SDS011;4939;52.00085300;4.17406100;2023-02-18T03:44:26;52.97;;;10.60;;
9799;SDS011;4939;52.00085300;4.17406100;2023-02-18T03:46:52;44.35;;;9.27;;
9799;SDS011;4939;52.00085300;4.17406100;2023-02-18T03:49:18;55.13;;;10.55;;
9799;SDS011;4939;52.00085300;4.17406100;2023-02-18T03:51:44;43.17;;;8.90;;
9799;SDS011;4939;52.00085300;4.17406100;2023-02-18T03:54:09;51.40;;;9.75;;
9799;SDS011;4939;52.00085300;4.17406100;2023-02-18T03:56:36;52.53;;;10.82;;
9799;SDS011;4939;52.00085300;4.17406100;2023-02-18T03:59:02;44.80;;;10.25;;
9799;SDS011;4939;52.00085300;4.17406100;2023-02-18T04:01:28;43.40;;;9.60;;
9799;SDS011;4939;52.00085300;4.17406100;2023-02-18T04:03:54;35.10;;;8.57;;
9799;SDS011;4939;52.00085300;4.17406100;2023-02-18T04:06:21;42.85;;;8.15;;
9799;SDS011;4939;52.00085300;4.17406100;2023-02-18T04:08:47;36.08;;;7.72;;
9799;SDS011;4939;52.00085300;4.17406100;2023-02-18T04:11:13;30.70;;;7.20;;
9799;SDS011;4939;52.00085300;4.17406100;2023-02-18T04:13:39;31.88;;;7.90;;
9799;SDS011;4939;52.00085300;4.17406100;2023-02-18T04:16:06;31.15;;;7.22;;
9799;SDS011;4939;52.00085300;4.17406100;2023-02-18T04:18:31;45.95;;;8.82;;
9799;SDS011;4939;52.00085300;4.17406100;2023-02-18T04:20:57;40.65;;;8.02;;
9799;SDS011;4939;52.00085300;4.17406100;2023-02-18T04:23:24;40.55;;;8.45;;
9799;SDS011;4939;52.00085300;4.17406100;2023-02-18T04:25:50;28.85;;;6.95;;
9799;SDS011;4939;52.00085300;4.17406100;2023-02-18T04:28:16;29.77;;;6.82;;
9799;SDS011;4939;52.00085300;4.17406100;2023-02-18T04:30:42;35.83;;;7.63;;
9799;SDS011;4939;52.00085300;4.17406100;2023-02-18T04:33:09;31.20;;;7.65;;
9799;SDS011;4939;52.00085300;4.17406100;2023-02-18T04:35:34;40.63;;;8.48;;
9799;SDS011;4939;52.00085300;4.17406100;2023-02-18T04:38:01;36.85;;;8.02;;
9799;SDS011;4939;52.00085300;4.17406100;2023-02-18T04:40:27;33.85;;;7.53;;
9799;SDS011;4939;52.00085300;4.17406100;2023-02-18T04:42:55;27.90;;;7.05;;
9799;SDS011;4939;52.00085300;4.17406100;2023-02-18T04:45:21;36.28;;;8.55;;
9799;SDS011;4939;52.00085300;4.17406100;2023-02-18T04:47:47;38.33;;;7.68;;
9799;SDS011;4939;52.00085300;4.17406100;2023-02-18T04:50:15;35.85;;;8.73;;
9799;SDS011;4939;52.00085300;4.17406100;2023-02-18T04:52:41;28.85;;;7.28;;
9799;SDS011;4939;52.00085300;4.17406100;2023-02-18T04:55:07;35.70;;;9.07;;
9799;SDS011;4939;52.00085300;4.17406100;2023-02-18T04:57:33;34.92;;;8.50;;
9799;SDS011;4939;52.00085300;4.17406100;2023-02-18T04:59:59;28.65;;;7.53;;
9799;SDS011;4939;52.00085300;4.17406100;2023-02-18T05:02:24;32.08;;;6.60;;
9799;SDS011;4939;52.00085300;4.17406100;2023-02-18T05:04:50;24.52;;;6.70;;
9799;SDS011;4939;52.00085300;4.17406100;2023-02-18T05:07:17;25.17;;;6.70;;
9799;SDS011;4939;52.00085300;4.17406100;2023-02-18T05:09:42;26.30;;;6.93;;
9799;SDS011;4939;52.00085300;4.17406100;2023-02-18T05:12:08;25.02;;;6.03;;
9799;SDS011;4939;52.00085300;4.17406100;2023-02-18T05:14:34;28.65;;;6.85;;
9799;SDS011;4939;52.00085300;4.17406100;2023-02-18T05:16:59;28.38;;;6.63;;
9799;SDS011;4939;52.00085300;4.17406100;2023-02-18T05:19:25;27.40;;;7.20;;
9799;SDS011;4939;52.00085300;4.17406100;2023-02-18T05:21:50;29.58;;;6.85;;
9799;SDS011;4939;52.00085300;4.17406100;2023-02-18T05:24:18;33.10;;;7.88;;
9799;SDS011;4939;52.00085300;4.17406100;2023-02-18T05:26:43;33.65;;;6.47;;
9799;SDS011;4939;52.00085300;4.17406100;2023-02-18T05:29:09;30.13;;;7.15;;
9799;SDS011;4939;52.00085300;4.17406100;2023-02-18T05:31:35;30.38;;;7.30;;
9799;SDS011;4939;52.00085300;4.17406100;2023-02-18T05:34:02;37.40;;;8.52;;
9799;SDS011;4939;52.00085300;4.17406100;2023-02-18T05:36:28;35.10;;;7.95;;
9799;SDS011;4939;52.00085300;4.17406100;2023-02-18T05:38:53;46.92;;;9.13;;
9799;SDS011;4939;52.00085300;4.17406100;2023-02-18T05:41:19;37.63;;;8.48;;
9799;SDS011;4939;52.00085300;4.17406100;2023-02-18T05:43:44;47.42;;;10.13;;
9799;SDS011;4939;52.00085300;4.17406100;2023-02-18T05:46:42;46.22;;;9.20;;
9799;SDS011;4939;52.00085300;4.17406100;2023-02-18T05:49:08;40.90;;;8.30;;
9799;SDS011;4939;52.00085300;4.17406100;2023-02-18T05:51:35;49.55;;;9.68;;
9799;SDS011;4939;52.00085300;4.17406100;2023-02-18T05:54:01;54.72;;;9.65;;
9799;SDS011;4939;52.00085300;4.17406100;2023-02-18T05:56:27;37.88;;;8.15;;
9799;SDS011;4939;52.00085300;4.17406100;2023-02-18T05:58:53;39.08;;;7.47;;
9799;SDS011;4939;52.00085300;4.17406100;2023-02-18T06:01:18;38.90;;;8.00;;
9799;SDS011;4939;52.00085300;4.17406100;2023-02-18T06:03:44;41.97;;;6.45;;
9799;SDS011;4939;52.00085300;4.17406100;2023-02-18T06:06:09;39.47;;;7.88;;
9799;SDS011;4939;52.00085300;4.17406100;2023-02-18T06:08:35;39.15;;;7.15;;
9799;SDS011;4939;52.00085300;4.17406100;2023-02-18T06:11:01;38.40;;;7.28;;
9799;SDS011;4939;52.00085300;4.17406100;2023-02-18T06:13:27;26.50;;;5.72;;
9799;SDS011;4939;52.00085300;4.17406100;2023-02-18T06:15:52;25.90;;;5.90;;
9799;SDS011;4939;52.00085300;4.17406100;2023-02-18T06:18:19;32.20;;;5.25;;
9799;SDS011;4939;52.00085300;4.17406100;2023-02-18T06:20:46;30.98;;;5.30;;
9799;SDS011;4939;52.00085300;4.17406100;2023-02-18T06:23:13;43.60;;;5.93;;
9799;SDS011;4939;52.00085300;4.17406100;2023-02-18T06:25:39;33.65;;;5.75;;
9799;SDS011;4939;52.00085300;4.17406100;2023-02-18T06:28:05;26.00;;;6.05;;
9799;SDS011;4939;52.00085300;4.17406100;2023-02-18T06:30:31;25.70;;;5.70;;
9799;SDS011;4939;52.00085300;4.17406100;2023-02-18T06:32:57;29.42;;;4.57;;
9799;SDS011;4939;52.00085300;4.17406100;2023-02-18T06:35:23;32.88;;;5.22;;
9799;SDS011;4939;52.00085300;4.17406100;2023-02-18T06:37:48;32.22;;;5.07;;
9799;SDS011;4939;52.00085300;4.17406100;2023-02-18T06:40:14;33.40;;;4.72;;
9799;SDS011;4939;52.00085300;4.17406100;2023-02-18T06:42:40;24.02;;;3.17;;
9799;SDS011;4939;52.00085300;4.17406100;2023-02-18T06:45:05;25.52;;;3.58;;
9799;SDS011;4939;52.00085300;4.17406100;2023-02-18T06:47:32;28.85;;;3.67;;
9799;SDS011;4939;52.00085300;4.17406100;2023-02-18T06:49:58;18.25;;;2.88;;
9799;SDS011;4939;52.00085300;4.17406100;2023-02-18T06:52:23;23.48;;;3.45;;
9799;SDS011;4939;52.00085300;4.17406100;2023-02-18T06:54:49;22.88;;;4.10;;
9799;SDS011;4939;52.00085300;4.17406100;2023-02-18T06:57:16;31.08;;;3.80;;
9799;SDS011;4939;52.00085300;4.17406100;2023-02-18T06:59:41;32.40;;;3.60;;
9799;SDS011;4939;52.00085300;4.17406100;2023-02-18T07:02:09;37.47;;;5.45;;
9799;SDS011;4939;52.00085300;4.17406100;2023-02-18T07:04:37;29.30;;;3.22;;
9799;SDS011;4939;52.00085300;4.17406100;2023-02-18T07:07:03;22.30;;;3.33;;
9799;SDS011;4939;52.00085300;4.17406100;2023-02-18T07:09:28;29.13;;;4.57;;
9799;SDS011;4939;52.00085300;4.17406100;2023-02-18T07:11:54;32.80;;;3.92;;
9799;SDS011;4939;52.00085300;4.17406100;2023-02-18T07:14:20;30.77;;;4.07;;
9799;SDS011;4939;52.00085300;4.17406100;2023-02-18T07:16:45;26.40;;;3.90;;
9799;SDS011;4939;52.00085300;4.17406100;2023-02-18T07:19:11;31.33;;;4.13;;
9799;SDS011;4939;52.00085300;4.17406100;2023-02-18T07:21:36;20.23;;;3.45;;
9799;SDS011;4939;52.00085300;4.17406100;2023-02-18T07:24:02;25.95;;;3.30;;
9799;SDS011;4939;52.00085300;4.17406100;2023-02-18T07:26:28;26.52;;;3.47;;
9799;SDS011;4939;52.00085300;4.17406100;2023-02-18T07:28:54;28.15;;;3.88;;
9799;SDS011;4939;52.00085300;4.17406100;2023-02-18T07:31:20;26.65;;;3.83;;
9799;SDS011;4939;52.00085300;4.17406100;2023-02-18T07:33:45;24.42;;;3.35;;
9799;SDS011;4939;52.00085300;4.17406100;2023-02-18T07:36:11;30.48;;;3.65;;
9799;SDS011;4939;52.00085300;4.17406100;2023-02-18T07:38:36;29.40;;;3.60;;
9799;SDS011;4939;52.00085300;4.17406100;2023-02-18T07:41:02;25.85;;;3.72;;
9799;SDS011;4939;52.00085300;4.17406100;2023-02-18T07:43:28;22.98;;;3.58;;
9799;SDS011;4939;52.00085300;4.17406100;2023-02-18T07:45:53;21.00;;;3.50;;
9799;SDS011;4939;52.00085300;4.17406100;2023-02-18T07:48:19;32.28;;;3.65;;
9799;SDS011;4939;52.00085300;4.17406100;2023-02-18T07:50:45;33.22;;;3.50;;
9799;SDS011;4939;52.00085300;4.17406100;2023-02-18T07:53:12;22.23;;;3.83;;
9799;SDS011;4939;52.00085300;4.17406100;2023-02-18T07:55:38;30.58;;;3.13;;
9799;SDS011;4939;52.00085300;4.17406100;2023-02-18T07:58:14;26.33;;;3.92;;
9799;SDS011;4939;52.00085300;4.17406100;2023-02-18T08:00:47;22.95;;;2.95;;
9799;SDS011;4939;52.00085300;4.17406100;2023-02-18T08:03:15;24.98;;;3.72;;
9799;SDS011;4939;52.00085300;4.17406100;2023-02-18T08:05:42;28.60;;;4.10;;
9799;SDS011;4939;52.00085300;4.17406100;2023-02-18T08:08:12;28.30;;;3.67;;
9799;SDS011;4939;52.00085300;4.17406100;2023-02-18T08:10:38;26.33;;;3.40;;
9799;SDS011;4939;52.00085300;4.17406100;2023-02-18T08:13:04;32.50;;;3.92;;
9799;SDS011;4939;52.00085300;4.17406100;2023-02-18T08:15:30;26.50;;;3.33;;
9799;SDS011;4939;52.00085300;4.17406100;2023-02-18T08:17:55;24.83;;;4.25;;
9799;SDS011;4939;52.00085300;4.17406100;2023-02-18T08:20:21;24.80;;;3.15;;
9799;SDS011;4939;52.00085300;4.17406100;2023-02-18T08:22:48;37.50;;;5.20;;
9799;SDS011;4939;52.00085300;4.17406100;2023-02-18T08:25:14;25.55;;;3.25;;
9799;SDS011;4939;52.00085300;4.17406100;2023-02-18T08:27:39;22.73;;;3.42;;
9799;SDS011;4939;52.00085300;4.17406100;2023-02-18T08:30:05;22.90;;;3.40;;
9799;SDS011;4939;52.00085300;4.17406100;2023-02-18T08:32:31;28.48;;;3.90;;
9799;SDS011;4939;52.00085300;4.17406100;2023-02-18T08:34:57;34.20;;;3.45;;
9799;SDS011;4939;52.00085300;4.17406100;2023-02-18T08:37:22;29.27;;;4.22;;
9799;SDS011;4939;52.00085300;4.17406100;2023-02-18T08:39:48;24.17;;;2.95;;
9799;SDS011;4939;52.00085300;4.17406100;2023-02-18T08:42:14;25.27;;;3.40;;
9799;SDS011;4939;52.00085300;4.17406100;2023-02-18T08:44:39;33.65;;;3.33;;
9799;SDS011;4939;52.00085300;4.17406100;2023-02-18T08:47:05;26.67;;;3.42;;
9799;SDS011;4939;52.00085300;4.17406100;2023-02-18T08:49:31;26.55;;;3.50;;
9799;SDS011;4939;52.00085300;4.17406100;2023-02-18T08:51:57;25.15;;;3.17;;
9799;SDS011;4939;52.00085300;4.17406100;2023-02-18T08:54:22;20.10;;;3.00;;
9799;SDS011;4939;52.00085300;4.17406100;2023-02-18T08:56:48;26.35;;;3.28;;
9799;SDS011;4939;52.00085300;4.17406100;2023-02-18T08:59:17;18.67;;;2.25;;
9799;SDS011;4939;52.00085300;4.17406100;2023-02-18T09:01:43;22.92;;;2.50;;
9799;SDS011;4939;52.00085300;4.17406100;2023-02-18T09:04:09;28.75;;;3.30;;
9799;SDS011;4939;52.00085300;4.17406100;2023-02-18T09:06:37;30.90;;;2.67;;
9799;SDS011;4939;52.00085300;4.17406100;2023-02-18T09:09:03;27.90;;;3.60;;
9799;SDS011;4939;52.00085300;4.17406100;2023-02-18T09:11:29;30.52;;;3.33;;
9799;SDS011;4939;52.00085300;4.17406100;2023-02-18T09:13:55;21.90;;;3.25;;
9799;SDS011;4939;52.00085300;4.17406100;2023-02-18T09:16:22;25.48;;;3.00;;
9799;SDS011;4939;52.00085300;4.17406100;2023-02-18T09:18:48;24.27;;;3.08;;
9799;SDS011;4939;52.00085300;4.17406100;2023-02-18T09:21:14;17.65;;;2.75;;
9799;SDS011;4939;52.00085300;4.17406100;2023-02-18T09:23:43;22.25;;;2.88;;
9799;SDS011;4939;52.00085300;4.17406100;2023-02-18T09:26:09;34.58;;;3.35;;
9799;SDS011;4939;52.00085300;4.17406100;2023-02-18T09:28:38;28.13;;;3.05;;
9799;SDS011;4939;52.00085300;4.17406100;2023-02-18T09:31:14;22.38;;;2.50;;
9799;SDS011;4939;52.00085300;4.17406100;2023-02-18T09:33:44;20.77;;;2.80;;
9799;SDS011;4939;52.00085300;4.17406100;2023-02-18T09:36:15;25.10;;;3.27;;
9799;SDS011;4939;52.00085300;4.17406100;2023-02-18T09:38:41;23.35;;;3.28;;
9799;SDS011;4939;52.00085300;4.17406100;2023-02-18T09:41:53;18.50;;;2.58;;
9799;SDS011;4939;52.00085300;4.17406100;2023-02-18T09:44:08;27.88;;;3.40;;
9799;SDS011;4939;52.00085300;4.17406100;2023-02-18T09:46:48;18.88;;;2.90;;
9799;SDS011;4939;52.00085300;4.17406100;2023-02-18T09:49:25;22.33;;;2.58;;
9799;SDS011;4939;52.00085300;4.17406100;2023-02-18T09:51:53;22.37;;;3.10;;
9799;SDS011;4939;52.00085300;4.17406100;2023-02-18T09:54:20;21.02;;;2.70;;
9799;SDS011;4939;52.00085300;4.17406100;2023-02-18T09:56:46;21.42;;;2.92;;
9799;SDS011;4939;52.00085300;4.17406100;2023-02-18T09:59:15;15.13;;;2.15;;
9799;SDS011;4939;52.00085300;4.17406100;2023-02-18T10:01:44;20.48;;;2.42;;
9799;SDS011;4939;52.00085300;4.17406100;2023-02-18T10:04:24;21.40;;;2.42;;
9799;SDS011;4939;52.00085300;4.17406100;2023-02-18T10:06:59;20.73;;;2.60;;
9799;SDS011;4939;52.00085300;4.17406100;2023-02-18T10:09:29;21.50;;;2.63;;
9799;SDS011;4939;52.00085300;4.17406100;2023-02-18T10:12:06;17.30;;;2.33;;
9799;SDS011;4939;52.00085300;4.17406100;2023-02-18T10:14:35;15.75;;;2.38;;
9799;SDS011;4939;52.00085300;4.17406100;2023-02-18T10:17:01;19.15;;;2.40;;
9799;SDS011;4939;52.00085300;4.17406100;2023-02-18T10:19:29;23.77;;;2.63;;
9799;SDS011;4939;52.00085300;4.17406100;2023-02-18T10:21:59;11.85;;;1.88;;
9799;SDS011;4939;52.00085300;4.17406100;2023-02-18T10:24:38;15.02;;;2.90;;
9799;SDS011;4939;52.00085300;4.17406100;2023-02-18T10:27:07;16.08;;;1.90;;
9799;SDS011;4939;52.00085300;4.17406100;2023-02-18T10:29:33;13.50;;;2.22;;
9799;SDS011;4939;52.00085300;4.17406100;2023-02-18T10:32:05;15.10;;;2.10;;
9799;SDS011;4939;52.00085300;4.17406100;2023-02-18T10:34:44;20.98;;;2.33;;
9799;SDS011;4939;52.00085300;4.17406100;2023-02-18T10:43:13;16.27;;;2.40;;
9799;SDS011;4939;52.00085300;4.17406100;2023-02-18T10:51:32;14.35;;;2.30;;
9799;SDS011;4939;52.00085300;4.17406100;2023-02-18T10:54:00;13.65;;;2.13;;
9799;SDS011;4939;52.00085300;4.17406100;2023-02-18T10:59:26;17.60;;;2.38;;
9799;SDS011;4939;52.00085300;4.17406100;2023-02-18T11:02:14;20.80;;;3.10;;
9799;SDS011;4939;52.00085300;4.17406100;2023-02-18T11:04:43;9.43;;;2.17;;
9799;SDS011;4939;52.00085300;4.17406100;2023-02-18T11:07:13;18.45;;;2.20;;
9799;SDS011;4939;52.00085300;4.17406100;2023-02-18T11:12:24;21.55;;;2.40;;
9799;SDS011;4939;52.00085300;4.17406100;2023-02-18T11:17:38;18.88;;;2.50;;
9799;SDS011;4939;52.00085300;4.17406100;2023-02-18T11:20:19;12.25;;;1.85;;
9799;SDS011;4939;52.00085300;4.17406100;2023-02-18T11:25:31;13.13;;;1.63;;
9799;SDS011;4939;52.00085300;4.17406100;2023-02-18T11:28:00;13.20;;;1.88;;
9799;SDS011;4939;52.00085300;4.17406100;2023-02-18T11:30:41;16.80;;;2.83;;
9799;SDS011;4939;52.00085300;4.17406100;2023-02-18T11:35:56;14.43;;;2.80;;
9799;SDS011;4939;52.00085300;4.17406100;2023-02-18T11:41:08;18.00;;;2.25;;
9799;SDS011;4939;52.00085300;4.17406100;2023-02-18T11:43:40;19.38;;;2.63;;
9799;SDS011;4939;52.00085300;4.17406100;2023-02-18T11:46:10;12.60;;;2.45;;
9799;SDS011;4939;52.00085300;4.17406100;2023-02-18T11:48:39;14.60;;;2.03;;
9799;SDS011;4939;52.00085300;4.17406100;2023-02-18T11:51:05;16.23;;;2.08;;
9799;SDS011;4939;52.00085300;4.17406100;2023-02-18T11:53:38;16.33;;;1.88;;
9799;SDS011;4939;52.00085300;4.17406100;2023-02-18T11:56:05;14.20;;;2.05;;
9799;SDS011;4939;52.00085300;4.17406100;2023-02-18T11:58:44;15.80;;;2.17;;
9799;SDS011;4939;52.00085300;4.17406100;2023-02-18T12:04:20;16.92;;;1.98;;
9799;SDS011;4939;52.00085300;4.17406100;2023-02-18T12:09:36;12.25;;;1.85;;
9799;SDS011;4939;52.00085300;4.17406100;2023-02-18T12:12:11;16.20;;;1.67;;
9799;SDS011;4939;52.00085300;4.17406100;2023-02-18T12:14:48;16.40;;;2.23;;
9799;SDS011;4939;52.00085300;4.17406100;2023-02-18T12:17:30;13.45;;;1.70;;
9799;SDS011;4939;52.00085300;4.17406100;2023-02-18T12:22:56;9.63;;;1.90;;
9799;SDS011;4939;52.00085300;4.17406100;2023-02-18T12:37:23;10.57;;;2.13;;
9799;SDS011;4939;52.00085300;4.17406100;2023-02-18T12:39:43;14.60;;;2.05;;
9799;SDS011;4939;52.00085300;4.17406100;2023-02-18T12:42:35;13.40;;;2.15;;
9799;SDS011;4939;52.00085300;4.17406100;2023-02-18T12:45:22;12.98;;;1.80;;
9799;SDS011;4939;52.00085300;4.17406100;2023-02-18T12:48:10;9.27;;;1.75;;
9799;SDS011;4939;52.00085300;4.17406100;2023-02-18T12:51:03;5.93;;;1.38;;
9799;SDS011;4939;52.00085300;4.17406100;2023-02-18T12:56:10;12.65;;;1.77;;
9799;SDS011;4939;52.00085300;4.17406100;2023-02-18T13:01:55;9.40;;;2.15;;
9799;SDS011;4939;52.00085300;4.17406100;2023-02-18T13:04:35;17.60;;;2.70;;
9799;SDS011;4939;52.00085300;4.17406100;2023-02-18T13:07:25;13.05;;;2.13;;
9799;SDS011;4939;52.00085300;4.17406100;2023-02-18T13:15:43;15.05;;;2.30;;
9799;SDS011;4939;52.00085300;4.17406100;2023-02-18T13:18:17;11.38;;;2.00;;
9799;SDS011;4939;52.00085300;4.17406100;2023-02-18T13:20:48;10.15;;;1.77;;
9799;SDS011;4939;52.00085300;4.17406100;2023-02-18T13:23:27;15.23;;;2.83;;
9799;SDS011;4939;52.00085300;4.17406100;2023-02-18T13:26:00;12.77;;;1.95;;
9799;SDS011;4939;52.00085300;4.17406100;2023-02-18T13:36:49;11.50;;;1.90;;
9799;SDS011;4939;52.00085300;4.17406100;2023-02-18T13:39:21;8.40;;;1.80;;
9799;SDS011;4939;52.00085300;4.17406100;2023-02-18T13:41:48;7.57;;;1.42;;
9799;SDS011;4939;52.00085300;4.17406100;2023-02-18T13:46:48;12.88;;;2.08;;
9799;SDS011;4939;52.00085300;4.17406100;2023-02-18T13:49:17;16.27;;;2.47;;
9799;SDS011;4939;52.00085300;4.17406100;2023-02-18T13:51:47;16.52;;;2.20;;
9799;SDS011;4939;52.00085300;4.17406100;2023-02-18T13:54:25;12.30;;;1.98;;
9799;SDS011;4939;52.00085300;4.17406100;2023-02-18T13:59:46;11.35;;;1.75;;
9799;SDS011;4939;52.00085300;4.17406100;2023-02-18T14:04:53;16.38;;;2.58;;
9799;SDS011;4939;52.00085300;4.17406100;2023-02-18T14:20:45;18.88;;;2.33;;
9799;SDS011;4939;52.00085300;4.17406100;2023-02-18T14:25:50;18.83;;;2.67;;
9799;SDS011;4939;52.00085300;4.17406100;2023-02-18T14:31:00;20.55;;;2.67;;
9799;SDS011;4939;52.00085300;4.17406100;2023-02-18T14:33:35;19.83;;;2.10;;
9799;SDS011;4939;52.00085300;4.17406100;2023-02-18T14:36:21;19.05;;;2.60;;
9799;SDS011;4939;52.00085300;4.17406100;2023-02-18T14:38:59;24.90;;;2.97;;
9799;SDS011;4939;52.00085300;4.17406100;2023-02-18T14:48:10;17.48;;;2.10;;
9799;SDS011;4939;52.00085300;4.17406100;2023-02-18T14:50:22;19.00;;;2.70;;
9799;SDS011;4939;52.00085300;4.17406100;2023-02-18T14:52:49;18.52;;;2.47;;
9799;SDS011;4939;52.00085300;4.17406100;2023-02-18T14:55:28;15.48;;;2.38;;
9799;SDS011;4939;52.00085300;4.17406100;2023-02-18T14:57:58;13.75;;;2.22;;
9799;SDS011;4939;52.00085300;4.17406100;2023-02-18T15:00:28;21.02;;;3.28;;
9799;SDS011;4939;52.00085300;4.17406100;2023-02-18T15:02:58;21.17;;;2.60;;
9799;SDS011;4939;52.00085300;4.17406100;2023-02-18T15:05:29;17.23;;;3.00;;
9799;SDS011;4939;52.00085300;4.17406100;2023-02-18T15:07:57;20.27;;;3.15;;
9799;SDS011;4939;52.00085300;4.17406100;2023-02-18T15:10:43;20.85;;;2.90;;
9799;SDS011;4939;52.00085300;4.17406100;2023-02-18T15:13:19;18.77;;;2.40;;
9799;SDS011;4939;52.00085300;4.17406100;2023-02-18T15:15:49;16.63;;;2.28;;
9799;SDS011;4939;52.00085300;4.17406100;2023-02-18T15:18:32;18.33;;;3.13;;
9799;SDS011;4939;52.00085300;4.17406100;2023-02-18T15:21:01;21.60;;;3.10;;
9799;SDS011;4939;52.00085300;4.17406100;2023-02-18T15:23:29;23.60;;;3.35;;